New Stream 2 — JD4055 — position and weather

sailwx.info

Track history (hours):
 
Tides and Currents Weather Stations Pressure Air Temp Water Temp Dewpoint Dewpoint Depression Visibility Wind Speed Wind Dir Waves Ship Positions

New Stream 2

Last reported at 2017-Oct-17 07:13 UTC. Time now 2017-Oct-19 14:27 UTC.
Position N 34°00' E 135°03'.

Length 54 m; draft 3.5 m.

Type: Tanker. MMSI: 431008234.

Date/timePositionNaut miles runAvg speedWind from/ knotsBaromVisibWave heightAir tempDewpointWater temp
2017-Oct-17 07:13N 34°00' E 135°03'411.0
2017-Oct-17 06:53N 34°04' E 135°03'411.1
2017-Oct-17 06:30N 34°08' E 135°03'611.0
2017-Oct-17 06:00N 34°14' E 135°03'710.6
2017-Oct-17 05:18N 34°21' E 135°06'411.7
2017-Oct-17 04:58N 34°24' E 135°08'612.0
2017-Oct-17 04:30N 34°29' E 135°11'611.4
2017-Oct-17 04:00N 34°34' E 135°15'511.1
2017-Oct-17 03:30N 34°39' E 135°18'4 0.7
2017-Oct-16 22:09N 34°42' E 135°18'1 4.9
2017-Oct-16 22:00N 34°42' E 135°17'1 0.1
2017-Oct-16 01:23N 34°42' E 135°16'1 3.9
2017-Oct-16 01:00N 34°42' E 135°18'1 0.2
2017-Oct-15 22:08N 34°42' E 135°18'1 4.8
2017-Oct-15 22:01N 34°42' E 135°18'1 0.1
2017-Oct-14 22:59N 34°42' E 135°16'2 5.2
2017-Oct-14 22:30N 34°41' E 135°18'5 9.4
2017-Oct-14 22:00N 34°36' E 135°18'5 9.7
2017-Oct-14 21:30N 34°32' E 135°14'5 9.6
2017-Oct-14 21:00N 34°28' E 135°11'11 9.5
2017-Oct-14 19:51N 34°19' E 135°04'410.1
2017-Oct-14 19:26N 34°16' E 135°01'510.8
2017-Oct-14 19:00N 34°11' E 135°02'208 6.8
2017-Oct-13 12:38N 34°50' E 139°10'212.7
2017-Oct-13 12:29N 34°52' E 139°11'1310.8
2017-Oct-13 11:17N 34°59' E 139°24'310.1
2017-Oct-13 10:59N 35°00' E 139°27'510.3
2017-Oct-13 10:30N 35°03' E 139°32'611.4
2017-Oct-13 10:00N 35°06' E 139°38'612.4
2017-Oct-13 09:30N 35°10' E 139°44'611.7
2017-Oct-13 09:00N 35°16' E 139°46'611.7
2017-Oct-13 08:30N 35°21' E 139°42'611.9
2017-Oct-13 08:01N 35°26' E 139°42'3 5.5
2017-Oct-13 07:30N 35°29' E 139°40'0 0.0
2017-Oct-13 07:00N 35°29' E 139°40'0 0.0
2017-Oct-13 06:30N 35°29' E 139°40'0 0.0
2017-Oct-13 06:00N 35°29' E 139°40'0 0.0
2017-Oct-13 05:30N 35°29' E 139°40'0 0.0
2017-Oct-13 05:00N 35°29' E 139°40'0 0.0
2017-Oct-13 04:29N 35°29' E 139°40'0 0.0
2017-Oct-13 03:57N 35°29' E 139°40'0 0.0
2017-Oct-13 03:30N 35°29' E 139°40'0 0.0
2017-Oct-13 03:00N 35°29' E 139°40'0 0.0
2017-Oct-13 02:30N 35°29' E 139°40'0 0.0
2017-Oct-13 01:57N 35°29' E 139°40'0 0.0
2017-Oct-13 01:29N 35°29' E 139°40'0 0.0
2017-Oct-13 01:00N 35°29' E 139°40'0 0.0
2017-Oct-13 00:27N 35°29' E 139°40'0 0.0
2017-Oct-12 23:57N 35°29' E 139°40'0 0.0
2017-Oct-12 23:29N 35°29' E 139°40'0 0.0
2017-Oct-12 23:00N 35°29' E 139°40'0 0.0
2017-Oct-12 22:30N 35°29' E 139°40'0 0.0
2017-Oct-12 21:59N 35°29' E 139°40'0 0.0
2017-Oct-12 21:29N 35°29' E 139°40'0 0.0
2017-Oct-12 20:59N 35°29' E 139°40'0 0.0
2017-Oct-12 20:29N 35°29' E 139°40'0 0.0
2017-Oct-12 20:00N 35°29' E 139°40'0 0.0
2017-Oct-12 19:29N 35°29' E 139°40'0 0.0
2017-Oct-12 19:00N 35°29' E 139°40'0 0.0
2017-Oct-12 18:30N 35°29' E 139°40'0 0.0
2017-Oct-12 18:00N 35°29' E 139°40'0 0.0
2017-Oct-12 17:29N 35°29' E 139°40'0 0.0
2017-Oct-12 17:00N 35°29' E 139°40'0 0.0
2017-Oct-12 16:29N 35°29' E 139°40'0 0.0
2017-Oct-12 15:59N 35°29' E 139°40'0 0.0
2017-Oct-12 15:30N 35°29' E 139°40'0 0.0
2017-Oct-12 14:57N 35°29' E 139°40'0 0.0
2017-Oct-12 14:30N 35°29' E 139°40'0 0.0
2017-Oct-12 13:59N 35°29' E 139°40'0 0.0
2017-Oct-12 13:30N 35°29' E 139°40'0 0.0
2017-Oct-12 12:59N 35°29' E 139°40'0 0.0
2017-Oct-12 12:29N 35°29' E 139°40'0 0.0
2017-Oct-12 11:54N 35°29' E 139°40'0 0.0
2017-Oct-12 11:30N 35°29' E 139°40'0 0.0
2017-Oct-12 11:00N 35°29' E 139°40'0 0.0
2017-Oct-12 10:23N 35°29' E 139°40'0 0.0
2017-Oct-12 09:59N 35°29' E 139°40'0 0.0
2017-Oct-12 09:29N 35°29' E 139°40'0 0.0
2017-Oct-12 08:59N 35°29' E 139°40'0 0.0
2017-Oct-12 08:29N 35°29' E 139°40'0 0.0
2017-Oct-12 07:59N 35°29' E 139°40'0 0.0
2017-Oct-12 07:26N 35°29' E 139°40'0 0.0
2017-Oct-12 06:59N 35°29' E 139°40'0 0.0
2017-Oct-12 06:29N 35°29' E 139°40'0 0.0
2017-Oct-12 05:59N 35°29' E 139°40'1 0.1
2017-Oct-11 22:10N 35°28' E 139°40'  
2017-Oct-09 12:41N 34°51' E 139°10'1511.0
2017-Oct-09 11:21N 34°59' E 139°25'410.8
2017-Oct-09 10:58N 35°01' E 139°29'510.5
2017-Oct-09 10:30N 35°04' E 139°34'510.5
2017-Oct-09 10:00N 35°06' E 139°40'510.3
2017-Oct-09 09:30N 35°10' E 139°44'510.7
2017-Oct-09 09:00N 35°15' E 139°46'611.0
2017-Oct-09 08:27N 35°20' E 139°43'710.0
2017-Oct-09 07:47N 35°27' E 139°41'2 0.2
2017-Oct-08 21:00N 35°29' E 139°40'2 3.8
2017-Oct-08 20:30N 35°27' E 139°41'5 9.9
2017-Oct-08 20:00N 35°23' E 139°43'511.0
2017-Oct-08 19:30N 35°17' E 139°45'611.1
2017-Oct-08 19:00N 35°12' E 139°47'510.6
2017-Oct-08 18:30N 35°07' E 139°45'510.2
2017-Oct-08 18:00N 35°02' E 139°41'510.1
2017-Oct-08 17:30N 34°59' E 139°36'234 9.1
2017-Oct-07 15:45N 34°01' E 135°02'412.2
2017-Oct-07 15:28N 34°05' E 135°02'511.9
2017-Oct-07 15:00N 34°10' E 135°02'611.6
2017-Oct-07 14:30N 34°16' E 135°03'612.0
2017-Oct-07 14:00N 34°21' E 135°06'611.4
2017-Oct-07 13:30N 34°26' E 135°10'611.4
2017-Oct-07 13:00N 34°31' E 135°13'611.5
2017-Oct-07 12:30N 34°36' E 135°17'510.6
2017-Oct-07 12:00N 34°41' E 135°18'2 3.0
2017-Oct-07 11:26N 34°42' E 135°16'0 0.0
2017-Oct-07 09:32N 34°42' E 135°16'0 0.1
2017-Oct-07 09:26N 34°42' E 135°16'0 0.0
2017-Oct-07 08:56N 34°42' E 135°16'0 0.0
2017-Oct-07 08:14N 34°42' E 135°16'0 0.0
2017-Oct-07 07:50N 34°42' E 135°16'0 0.0
2017-Oct-07 07:20N 34°42' E 135°16'  
Track history (hours):
 
Tides and Currents Weather Stations Pressure Air Temp Water Temp Dewpoint Dewpoint Depression Visibility Wind Speed Wind Dir Waves Ship Positions

New Stream 2

Last reported at 2017-Oct-17 07:13 UTC. Time now 2017-Oct-19 14:27 UTC.
Position N 34°00' E 135°03'.

Length 54 m; draft 3.5 m.

Type: Tanker. MMSI: 431008234.

Date/timePositionNaut miles runAvg speedWind from/ knotsBaromVisibWave heightAir tempDewpointWater temp
2017-Oct-17 07:13N 34°00' E 135°03'411.0
2017-Oct-17 06:53N 34°04' E 135°03'411.1
2017-Oct-17 06:30N 34°08' E 135°03'611.0
2017-Oct-17 06:00N 34°14' E 135°03'710.6
2017-Oct-17 05:18N 34°21' E 135°06'411.7
2017-Oct-17 04:58N 34°24' E 135°08'612.0
2017-Oct-17 04:30N 34°29' E 135°11'611.4
2017-Oct-17 04:00N 34°34' E 135°15'511.1
2017-Oct-17 03:30N 34°39' E 135°18'4 0.7
2017-Oct-16 22:09N 34°42' E 135°18'1 4.9
2017-Oct-16 22:00N 34°42' E 135°17'1 0.1
2017-Oct-16 01:23N 34°42' E 135°16'1 3.9
2017-Oct-16 01:00N 34°42' E 135°18'1 0.2
2017-Oct-15 22:08N 34°42' E 135°18'1 4.8
2017-Oct-15 22:01N 34°42' E 135°18'1 0.1
2017-Oct-14 22:59N 34°42' E 135°16'2 5.2
2017-Oct-14 22:30N 34°41' E 135°18'5 9.4
2017-Oct-14 22:00N 34°36' E 135°18'5 9.7
2017-Oct-14 21:30N 34°32' E 135°14'5 9.6
2017-Oct-14 21:00N 34°28' E 135°11'11 9.5
2017-Oct-14 19:51N 34°19' E 135°04'410.1
2017-Oct-14 19:26N 34°16' E 135°01'510.8
2017-Oct-14 19:00N 34°11' E 135°02'208 6.8
2017-Oct-13 12:38N 34°50' E 139°10'212.7
2017-Oct-13 12:29N 34°52' E 139°11'1310.8
2017-Oct-13 11:17N 34°59' E 139°24'310.1
2017-Oct-13 10:59N 35°00' E 139°27'510.3
2017-Oct-13 10:30N 35°03' E 139°32'611.4
2017-Oct-13 10:00N 35°06' E 139°38'612.4
2017-Oct-13 09:30N 35°10' E 139°44'611.7
2017-Oct-13 09:00N 35°16' E 139°46'611.7
2017-Oct-13 08:30N 35°21' E 139°42'611.9
2017-Oct-13 08:01N 35°26' E 139°42'3 5.5
2017-Oct-13 07:30N 35°29' E 139°40'0 0.0
2017-Oct-13 07:00N 35°29' E 139°40'0 0.0
2017-Oct-13 06:30N 35°29' E 139°40'0 0.0
2017-Oct-13 06:00N 35°29' E 139°40'0 0.0
2017-Oct-13 05:30N 35°29' E 139°40'0 0.0
2017-Oct-13 05:00N 35°29' E 139°40'0 0.0
2017-Oct-13 04:29N 35°29' E 139°40'0 0.0
2017-Oct-13 03:57N 35°29' E 139°40'0 0.0
2017-Oct-13 03:30N 35°29' E 139°40'0 0.0
2017-Oct-13 03:00N 35°29' E 139°40'0 0.0
2017-Oct-13 02:30N 35°29' E 139°40'0 0.0
2017-Oct-13 01:57N 35°29' E 139°40'0 0.0
2017-Oct-13 01:29N 35°29' E 139°40'0 0.0
2017-Oct-13 01:00N 35°29' E 139°40'0 0.0
2017-Oct-13 00:27N 35°29' E 139°40'0 0.0
2017-Oct-12 23:57N 35°29' E 139°40'0 0.0
2017-Oct-12 23:29N 35°29' E 139°40'0 0.0
2017-Oct-12 23:00N 35°29' E 139°40'0 0.0
2017-Oct-12 22:30N 35°29' E 139°40'0 0.0
2017-Oct-12 21:59N 35°29' E 139°40'0 0.0
2017-Oct-12 21:29N 35°29' E 139°40'0 0.0
2017-Oct-12 20:59N 35°29' E 139°40'0 0.0
2017-Oct-12 20:29N 35°29' E 139°40'0 0.0
2017-Oct-12 20:00N 35°29' E 139°40'0 0.0
2017-Oct-12 19:29N 35°29' E 139°40'0 0.0
2017-Oct-12 19:00N 35°29' E 139°40'0 0.0
2017-Oct-12 18:30N 35°29' E 139°40'0 0.0
2017-Oct-12 18:00N 35°29' E 139°40'0 0.0
2017-Oct-12 17:29N 35°29' E 139°40'0 0.0
2017-Oct-12 17:00N 35°29' E 139°40'0 0.0
2017-Oct-12 16:29N 35°29' E 139°40'0 0.0
2017-Oct-12 15:59N 35°29' E 139°40'0 0.0
2017-Oct-12 15:30N 35°29' E 139°40'0 0.0
2017-Oct-12 14:57N 35°29' E 139°40'0 0.0
2017-Oct-12 14:30N 35°29' E 139°40'0 0.0
2017-Oct-12 13:59N 35°29' E 139°40'0 0.0
2017-Oct-12 13:30N 35°29' E 139°40'0 0.0
2017-Oct-12 12:59N 35°29' E 139°40'0 0.0
2017-Oct-12 12:29N 35°29' E 139°40'0 0.0
2017-Oct-12 11:54N 35°29' E 139°40'0 0.0
2017-Oct-12 11:30N 35°29' E 139°40'0 0.0
2017-Oct-12 11:00N 35°29' E 139°40'0 0.0
2017-Oct-12 10:23N 35°29' E 139°40'0 0.0
2017-Oct-12 09:59N 35°29' E 139°40'0 0.0
2017-Oct-12 09:29N 35°29' E 139°40'0 0.0
2017-Oct-12 08:59N 35°29' E 139°40'0 0.0
2017-Oct-12 08:29N 35°29' E 139°40'0 0.0
2017-Oct-12 07:59N 35°29' E 139°40'0 0.0
2017-Oct-12 07:26N 35°29' E 139°40'0 0.0
2017-Oct-12 06:59N 35°29' E 139°40'0 0.0
2017-Oct-12 06:29N 35°29' E 139°40'0 0.0
2017-Oct-12 05:59N 35°29' E 139°40'1 0.1
2017-Oct-11 22:10N 35°28' E 139°40'  
2017-Oct-09 12:41N 34°51' E 139°10'1511.0
2017-Oct-09 11:21N 34°59' E 139°25'410.8
2017-Oct-09 10:58N 35°01' E 139°29'510.5
2017-Oct-09 10:30N 35°04' E 139°34'510.5
2017-Oct-09 10:00N 35°06' E 139°40'510.3
2017-Oct-09 09:30N 35°10' E 139°44'510.7
2017-Oct-09 09:00N 35°15' E 139°46'611.0
2017-Oct-09 08:27N 35°20' E 139°43'710.0
2017-Oct-09 07:47N 35°27' E 139°41'2 0.2
2017-Oct-08 21:00N 35°29' E 139°40'2 3.8
2017-Oct-08 20:30N 35°27' E 139°41'5 9.9
2017-Oct-08 20:00N 35°23' E 139°43'511.0
2017-Oct-08 19:30N 35°17' E 139°45'611.1
2017-Oct-08 19:00N 35°12' E 139°47'510.6
2017-Oct-08 18:30N 35°07' E 139°45'510.2
2017-Oct-08 18:00N 35°02' E 139°41'510.1
2017-Oct-08 17:30N 34°59' E 139°36'234 9.1
2017-Oct-07 15:45N 34°01' E 135°02'412.2
2017-Oct-07 15:28N 34°05' E 135°02'511.9
2017-Oct-07 15:00N 34°10' E 135°02'611.6
2017-Oct-07 14:30N 34°16' E 135°03'612.0
2017-Oct-07 14:00N 34°21' E 135°06'611.4
2017-Oct-07 13:30N 34°26' E 135°10'611.4
2017-Oct-07 13:00N 34°31' E 135°13'611.5
2017-Oct-07 12:30N 34°36' E 135°17'510.6
2017-Oct-07 12:00N 34°41' E 135°18'2 3.0
2017-Oct-07 11:26N 34°42' E 135°16'0 0.0
2017-Oct-07 09:32N 34°42' E 135°16'0 0.1
2017-Oct-07 09:26N 34°42' E 135°16'0 0.0
2017-Oct-07 08:56N 34°42' E 135°16'0 0.0
2017-Oct-07 08:14N 34°42' E 135°16'0 0.0
2017-Oct-07 07:50N 34°42' E 135°16'0 0.0
2017-Oct-07 07:20N 34°42' E 135°16'  

Dump ship's entire track history